createdAt,value
2022-09-10T00:00:33.249Z,68.86
2022-09-10T00:12:33.709Z,69.29
2022-09-10T00:24:34.189Z,68.18
2022-09-10T00:36:34.626Z,66.17
2022-09-10T00:48:35.136Z,66.15
2022-09-10T01:00:35.546Z,66.69
2022-09-10T01:12:36.183Z,67.45
2022-09-10T01:24:36.415Z,66.53
2022-09-10T01:36:36.891Z,66.03
2022-09-10T01:48:37.346Z,68.09
2022-09-10T02:00:37.870Z,69.76
2022-09-10T02:12:38.233Z,67.85
2022-09-10T02:24:38.715Z,69.24
2022-09-10T02:36:39.133Z,67.36
2022-09-10T02:48:39.735Z,70.49
2022-09-10T03:00:40.081Z,72.73
2022-09-10T03:12:40.519Z,68.28
2022-09-10T03:24:40.965Z,66.26
2022-09-10T03:36:41.436Z,67.03
2022-09-10T03:48:41.844Z,66.52
2022-09-10T04:00:42.371Z,66.74
2022-09-10T04:12:42.823Z,70.16
2022-09-10T04:24:43.248Z,71.55
2022-09-10T04:36:43.690Z,65.61
2022-09-10T04:48:44.142Z,65.79
2022-09-10T05:00:44.643Z,64.65
2022-09-10T05:12:45.087Z,65.78
2022-09-10T05:24:45.462Z,68.70
2022-09-10T05:36:45.975Z,67.71
2022-09-10T05:48:46.629Z,68.26
2022-09-10T06:00:46.879Z,64.95
2022-09-10T06:12:47.319Z,66.46
2022-09-10T06:24:47.774Z,65.15
2022-09-10T06:36:48.244Z,65.77
2022-09-10T06:48:48.773Z,68.98
2022-09-10T07:00:49.180Z,67.81
2022-09-10T07:12:49.582Z,64.97
2022-09-10T07:24:50.053Z,64.47
2022-09-10T07:36:50.535Z,61.77
2022-09-10T07:48:50.966Z,59.98
2022-09-10T08:00:51.442Z,55.06
2022-09-10T08:12:51.862Z,48.42
2022-09-10T08:24:52.348Z,46.05
2022-09-10T08:36:52.784Z,41.34
2022-09-10T08:48:53.239Z,43.06
2022-09-10T09:00:53.668Z,37.88
2022-09-10T09:12:54.130Z,38.49
2022-09-10T09:24:54.592Z,40.68
2022-09-10T09:36:55.069Z,37.27
2022-09-10T09:48:55.488Z,37.05
2022-09-10T10:00:55.995Z,38.38
2022-09-10T10:12:56.421Z,36.04
2022-09-10T10:24:56.852Z,36.69
2022-09-10T10:36:57.314Z,30.35
2022-09-10T10:48:58.107Z,34.55
2022-09-10T11:00:58.260Z,35.49
2022-09-10T11:12:58.709Z,37.73
2022-09-10T11:24:59.168Z,47.44
2022-09-10T11:36:59.633Z,57.04
2022-09-10T11:49:00.052Z,56.82
2022-09-10T12:01:00.500Z,45.85
2022-09-10T12:13:01.004Z,42.29
2022-09-10T12:25:01.466Z,49.82
2022-09-10T12:37:01.902Z,48.70
2022-09-10T12:49:02.342Z,52.53
2022-09-10T13:01:02.775Z,46.93
2022-09-10T13:13:03.288Z,55.46
2022-09-10T13:25:03.702Z,47.45
2022-09-10T13:37:04.165Z,45.31
2022-09-10T13:49:04.616Z,49.80
2022-09-10T14:01:05.112Z,49.46
2022-09-10T14:13:05.563Z,49.30
2022-09-10T14:25:06.104Z,52.93
2022-09-10T14:37:06.440Z,52.99
2022-09-10T14:49:06.911Z,51.04
2022-09-10T15:01:07.407Z,52.57
2022-09-10T15:13:07.837Z,48.43
2022-09-10T15:25:10.859Z,51.08
2022-09-10T15:37:08.770Z,52.47
2022-09-10T15:49:09.238Z,47.95
2022-09-10T16:01:09.647Z,53.42
2022-09-10T16:13:10.108Z,51.23
2022-09-10T16:25:10.548Z,50.37
2022-09-10T16:37:11.007Z,53.49
2022-09-10T16:49:11.481Z,53.62
2022-09-10T17:01:11.927Z,54.04
2022-09-10T17:13:12.403Z,55.80
2022-09-10T17:25:12.811Z,56.17
2022-09-10T17:37:13.277Z,58.50
2022-09-10T17:49:13.727Z,59.58
2022-09-10T18:01:14.222Z,56.71
2022-09-10T18:13:14.696Z,60.34
2022-09-10T18:25:15.131Z,58.72
2022-09-10T18:37:15.575Z,58.59
2022-09-10T18:49:20.454Z,66.15
2022-09-10T19:01:16.574Z,60.17
2022-09-10T19:13:16.932Z,62.63
2022-09-10T19:25:17.378Z,62.78
2022-09-10T19:37:17.857Z,62.57
2022-09-10T19:49:18.328Z,61.48
2022-09-10T20:01:18.792Z,64.04
2022-09-10T20:13:19.189Z,63.13
2022-09-10T20:25:19.827Z,65.54
2022-09-10T20:37:20.093Z,63.58
2022-09-10T20:49:20.569Z,63.86
2022-09-10T21:01:21.069Z,63.26
2022-09-10T21:13:24.948Z,62.38
2022-09-10T21:25:21.898Z,65.72
2022-09-10T21:37:22.391Z,63.62
2022-09-10T21:49:22.835Z,66.90
2022-09-10T22:01:23.333Z,63.36
2022-09-10T22:13:23.711Z,62.64
2022-09-10T22:25:24.163Z,61.86
2022-09-10T22:37:24.629Z,64.71
2022-09-10T22:49:25.126Z,64.74
2022-09-10T23:01:25.590Z,62.16
2022-09-10T23:13:26.007Z,64.98
2022-09-10T23:25:26.451Z,62.21
2022-09-10T23:37:26.928Z,60.54
2022-09-10T23:49:27.386Z,62.46
